createdAt,value
2018-09-27T00:00:32.314Z,19
2018-09-27T00:01:36.906Z,19
2018-09-27T00:02:42.112Z,19
2018-09-27T00:03:47.988Z,19
2018-09-27T00:04:52.574Z,19
2018-09-27T00:05:57.969Z,19
2018-09-27T00:07:03.021Z,19
2018-09-27T00:08:07.674Z,19
2018-09-27T00:09:13.136Z,19
2018-09-27T00:10:18.734Z,19
2018-09-27T00:11:24.164Z,19
2018-09-27T00:12:30.396Z,19
2018-09-27T00:13:35.052Z,19
2018-09-27T00:14:40.219Z,19
2018-09-27T00:15:46.148Z,19
2018-09-27T00:16:51.678Z,19
2018-09-27T00:17:56.838Z,19
2018-09-27T00:19:02.396Z,19
2018-09-27T00:20:07.835Z,19
2018-09-27T00:21:13.322Z,19
2018-09-27T00:22:18.347Z,19
2018-09-27T00:23:23.547Z,19
2018-09-27T00:24:28.957Z,20
2018-09-27T00:25:33.949Z,20
2018-09-27T00:26:39.439Z,20
2018-09-27T00:27:44.596Z,20
2018-09-27T00:28:49.848Z,20
2018-09-27T00:29:55.098Z,20
2018-09-27T00:31:00.752Z,20
2018-09-27T00:32:05.347Z,20
2018-09-27T00:33:10.775Z,20
2018-09-27T00:34:16.690Z,20
2018-09-27T00:35:22.043Z,20
2018-09-27T00:36:27.853Z,20
2018-09-27T00:37:33.282Z,20
2018-09-27T00:38:38.454Z,20
2018-09-27T00:39:43.535Z,20
2018-09-27T00:40:48.121Z,20
2018-09-27T00:41:53.274Z,20
2018-09-27T00:42:59.114Z,20
2018-09-27T00:44:04.563Z,20
2018-09-27T00:45:09.459Z,20
2018-09-27T00:46:15.158Z,20
2018-09-27T00:47:20.613Z,20
2018-09-27T00:48:26.595Z,20
2018-09-27T00:49:31.827Z,20
2018-09-27T00:50:36.973Z,20
2018-09-27T00:51:42.576Z,20
2018-09-27T00:52:48.051Z,20
2018-09-27T00:53:53.194Z,20
2018-09-27T00:54:58.877Z,20
2018-09-27T00:56:04.340Z,20
2018-09-27T00:57:09.219Z,20
2018-09-27T00:58:14.342Z,20
2018-09-27T00:59:19.302Z,20
2018-09-27T01:00:24.157Z,20
2018-09-27T01:01:44.021Z,20
2018-09-27T01:02:49.181Z,20
2018-09-27T01:03:55.080Z,20
2018-09-27T01:05:00.354Z,20
2018-09-27T01:06:04.662Z,20
2018-09-27T01:07:09.780Z,20
2018-09-27T01:08:14.730Z,20
2018-09-27T01:09:20.297Z,20
2018-09-27T01:10:25.907Z,20
2018-09-27T01:11:31.120Z,20
2018-09-27T01:12:36.338Z,20
2018-09-27T01:13:41.769Z,20
2018-09-27T01:14:47.275Z,20
2018-09-27T01:15:52.418Z,20
2018-09-27T01:16:57.847Z,20
2018-09-27T01:18:03.023Z,20
2018-09-27T01:19:08.440Z,20
2018-09-27T01:20:13.593Z,20
2018-09-27T01:21:18.918Z,20
2018-09-27T01:22:24.367Z,20
2018-09-27T01:23:29.554Z,20
2018-09-27T01:24:34.864Z,20
2018-09-27T01:25:40.296Z,20
2018-09-27T01:26:45.452Z,20
2018-09-27T01:27:51.468Z,20
2018-09-27T01:28:56.419Z,20
2018-09-27T01:30:01.849Z,20
2018-09-27T01:31:06.036Z,20
2018-09-27T01:32:11.465Z,20
2018-09-27T01:33:16.329Z,20
2018-09-27T01:34:21.961Z,20
2018-09-27T01:35:27.123Z,20
2018-09-27T01:36:32.667Z,20
2018-09-27T01:37:37.809Z,20
2018-09-27T01:38:43.195Z,20
2018-09-27T01:39:48.639Z,20
2018-09-27T01:40:53.793Z,20
2018-09-27T01:41:58.949Z,20
2018-09-27T01:43:04.545Z,20
2018-09-27T01:44:09.712Z,20
2018-09-27T01:45:15.149Z,20
2018-09-27T01:46:20.324Z,20
2018-09-27T01:47:25.840Z,20
2018-09-27T01:48:31.682Z,20
2018-09-27T01:49:37.228Z,20
2018-09-27T01:50:42.704Z,20
2018-09-27T01:51:48.127Z,20
2018-09-27T01:52:52.793Z,20
2018-09-27T01:53:58.332Z,20
2018-09-27T01:55:03.788Z,20
2018-09-27T01:56:08.382Z,20
2018-09-27T01:57:13.249Z,20
2018-09-27T01:58:19.146Z,20
2018-09-27T01:59:24.296Z,20
2018-09-27T02:00:30.124Z,20
2018-09-27T02:01:35.275Z,20
2018-09-27T02:02:40.418Z,20
2018-09-27T02:03:45.819Z,20
2018-09-27T02:04:51.306Z,20
2018-09-27T02:05:56.747Z,20
2018-09-27T02:07:02.510Z,20
2018-09-27T02:08:07.749Z,20
2018-09-27T02:09:12.345Z,20
2018-09-27T02:10:17.768Z,20
2018-09-27T02:11:22.973Z,20
2018-09-27T02:12:28.658Z,20
2018-09-27T02:13:33.834Z,20
2018-09-27T02:14:39.351Z,20
2018-09-27T02:15:44.801Z,20
2018-09-27T02:16:49.939Z,20
2018-09-27T02:17:55.417Z,20
2018-09-27T02:19:01.199Z,20
2018-09-27T02:20:05.801Z,20
2018-09-27T02:21:11.232Z,20
2018-09-27T02:22:16.634Z,20
2018-09-27T02:23:21.806Z,20
2018-09-27T02:24:27.377Z,20
2018-09-27T02:25:32.531Z,20
2018-09-27T02:26:37.981Z,20
2018-09-27T02:27:43.624Z,20
2018-09-27T02:28:48.775Z,20
2018-09-27T02:29:53.686Z,20
2018-09-27T02:30:59.536Z,20
2018-09-27T02:32:04.699Z,20
2018-09-27T02:33:09.891Z,20
2018-09-27T02:34:15.122Z,20
2018-09-27T02:35:19.991Z,20
2018-09-27T02:37:45.355Z,20
2018-09-27T02:38:50.828Z,20
2018-09-27T02:39:56.390Z,20
2018-09-27T02:41:01.833Z,20
2018-09-27T02:42:06.995Z,20
2018-09-27T02:43:12.675Z,20
2018-09-27T02:44:18.141Z,20
2018-09-27T02:45:23.084Z,20
2018-09-27T02:46:29.154Z,20
2018-09-27T02:47:33.449Z,20
2018-09-27T02:48:38.854Z,20
2018-09-27T02:49:44.059Z,20
2018-09-27T02:50:49.211Z,20
2018-09-27T02:51:54.775Z,20
2018-09-27T02:52:59.955Z,20
2018-09-27T02:54:04.817Z,20
2018-09-27T02:55:10.511Z,20
2018-09-27T02:56:15.676Z,20
2018-09-27T02:57:21.144Z,20
2018-09-27T02:58:41.361Z,20
2018-09-27T02:59:46.514Z,20
2018-09-27T03:00:51.831Z,20
2018-09-27T03:01:56.816Z,20
2018-09-27T03:03:01.993Z,20
2018-09-27T03:04:06.617Z,20
2018-09-27T03:05:11.826Z,20
2018-09-27T03:06:16.724Z,20
2018-09-27T03:07:22.135Z,20
2018-09-27T03:08:27.592Z,20
2018-09-27T03:09:32.914Z,20
2018-09-27T03:10:38.129Z,20
2018-09-27T03:11:43.556Z,20
2018-09-27T03:12:49.160Z,20
2018-09-27T03:13:54.434Z,20
2018-09-27T03:15:00.277Z,20
2018-09-27T03:16:05.806Z,19
2018-09-27T03:17:10.669Z,19
2018-09-27T03:18:15.822Z,20
2018-09-27T03:19:21.506Z,20
2018-09-27T03:20:26.985Z,20
2018-09-27T03:21:32.916Z,20
2018-09-27T03:22:38.058Z,20
2018-09-27T03:23:43.508Z,20
2018-09-27T03:24:48.946Z,19
2018-09-27T03:25:54.380Z,20
2018-09-27T03:26:59.890Z,19
2018-09-27T03:28:05.621Z,19
2018-09-27T03:29:10.768Z,19
2018-09-27T03:30:16.269Z,19
2018-09-27T03:31:21.863Z,19
2018-09-27T03:32:27.318Z,19
2018-09-27T03:33:34.055Z,19
2018-09-27T03:34:38.907Z,19
2018-09-27T03:35:44.132Z,19
2018-09-27T03:36:49.164Z,19
2018-09-27T03:37:54.629Z,19
2018-09-27T03:38:59.773Z,19
2018-09-27T03:40:05.130Z,19
2018-09-27T03:41:10.626Z,19
2018-09-27T03:42:15.861Z,19
2018-09-27T03:43:21.254Z,19
2018-09-27T03:44:26.718Z,19
2018-09-27T03:45:32.394Z,19
2018-09-27T03:46:37.550Z,19
2018-09-27T03:47:42.991Z,19
2018-09-27T03:48:48.656Z,19
2018-09-27T03:49:53.804Z,19
2018-09-27T03:50:59.246Z,19
2018-09-27T03:52:05.001Z,19
2018-09-27T03:53:10.191Z,19
2018-09-27T03:54:15.339Z,19
2018-09-27T03:55:21.054Z,19
2018-09-27T03:56:26.286Z,19
2018-09-27T03:57:32.117Z,19
2018-09-27T03:58:37.548Z,19
2018-09-27T03:59:42.698Z,19
2018-09-27T04:00:47.539Z,19
2018-09-27T04:01:52.767Z,19
2018-09-27T04:02:58.230Z,19
2018-09-27T04:04:03.345Z,19
2018-09-27T04:05:07.934Z,19
2018-09-27T04:06:12.555Z,19
2018-09-27T04:07:18.511Z,19
2018-09-27T04:08:23.933Z,20
2018-09-27T04:09:29.592Z,20
2018-09-27T04:10:35.021Z,20
2018-09-27T04:11:40.461Z,20
2018-09-27T04:12:46.617Z,20
2018-09-27T04:13:51.601Z,20
2018-09-27T04:14:57.033Z,20
2018-09-27T04:16:02.438Z,20
2018-09-27T04:17:07.385Z,20
2018-09-27T04:18:12.254Z,20
2018-09-27T04:19:18.139Z,20
2018-09-27T04:20:23.305Z,20
2018-09-27T04:21:28.795Z,20
2018-09-27T04:22:34.281Z,20
2018-09-27T04:23:39.435Z,21
2018-09-27T04:24:44.499Z,21
2018-09-27T04:25:49.716Z,21
2018-09-27T04:26:55.295Z,21
2018-09-27T04:28:00.720Z,21
2018-09-27T04:29:05.329Z,21
2018-09-27T04:30:10.766Z,21
2018-09-27T04:31:16.668Z,21
2018-09-27T04:32:21.863Z,21
2018-09-27T04:33:27.623Z,21
2018-09-27T04:34:32.670Z,21
2018-09-27T04:35:37.820Z,21
2018-09-27T04:36:42.947Z,21
2018-09-27T04:37:48.188Z,21
2018-09-27T04:38:53.140Z,21
2018-09-27T04:39:58.545Z,21
2018-09-27T04:41:03.464Z,22
2018-09-27T04:42:09.257Z,22
2018-09-27T04:43:14.650Z,22
2018-09-27T04:44:19.232Z,22
2018-09-27T04:45:24.704Z,22
2018-09-27T04:46:45.248Z,22
2018-09-27T04:47:50.667Z,22
2018-09-27T04:48:56.516Z,22
2018-09-27T04:50:01.736Z,22
2018-09-27T04:51:06.680Z,22
2018-09-27T04:52:12.034Z,22
2018-09-27T04:53:17.410Z,22
2018-09-27T04:54:22.578Z,22
2018-09-27T04:55:28.099Z,22
2018-09-27T04:56:33.714Z,22
2018-09-27T04:57:39.626Z,22
2018-09-27T04:58:44.800Z,22
2018-09-27T04:59:49.441Z,22
2018-09-27T05:00:55.052Z,22
2018-09-27T05:02:00.240Z,22
2018-09-27T05:03:05.532Z,22
2018-09-27T05:04:11.183Z,22
2018-09-27T05:05:16.623Z,22
2018-09-27T05:06:21.748Z,22
2018-09-27T05:07:27.473Z,22
2018-09-27T05:08:32.654Z,22
2018-09-27T05:09:38.042Z,22
2018-09-27T05:10:43.338Z,22
2018-09-27T05:11:48.791Z,22
2018-09-27T05:12:53.943Z,22
2018-09-27T05:13:58.812Z,22
2018-09-27T05:15:03.676Z,22
2018-09-27T05:16:08.555Z,22
2018-09-27T05:17:13.732Z,22
2018-09-27T05:18:19.174Z,22
2018-09-27T05:19:25.362Z,23
2018-09-27T05:20:30.928Z,23
2018-09-27T05:21:36.923Z,23
2018-09-27T05:22:42.873Z,23
2018-09-27T05:23:48.317Z,23
2018-09-27T05:24:53.516Z,23
2018-09-27T05:25:58.090Z,23
2018-09-27T05:27:03.356Z,23
2018-09-27T05:28:08.937Z,23
2018-09-27T05:29:14.081Z,23
2018-09-27T05:30:19.528Z,23
2018-09-27T05:31:24.948Z,23
2018-09-27T05:32:30.191Z,23
2018-09-27T05:33:35.941Z,26
2018-09-27T05:34:41.482Z,25
2018-09-27T05:35:46.919Z,25
2018-09-27T05:36:52.506Z,24
2018-09-27T05:37:57.641Z,24
2018-09-27T05:39:03.090Z,24
2018-09-27T05:40:08.375Z,23
2018-09-27T05:41:13.576Z,23
2018-09-27T05:42:19.134Z,23
2018-09-27T05:43:24.557Z,23
2018-09-27T05:44:29.985Z,23
2018-09-27T05:45:35.329Z,23
2018-09-27T05:46:41.186Z,23
2018-09-27T05:47:46.336Z,23
2018-09-27T05:48:52.165Z,23
2018-09-27T05:49:57.392Z,23
2018-09-27T05:51:01.843Z,23
2018-09-27T05:52:06.122Z,23
2018-09-27T05:53:11.623Z,23
2018-09-27T05:54:16.861Z,23
2018-09-27T05:55:22.760Z,23
2018-09-27T05:56:27.916Z,23
2018-09-27T05:57:33.204Z,23
2018-09-27T05:58:38.763Z,23
2018-09-27T05:59:44.195Z,23
2018-09-27T06:00:49.321Z,23
2018-09-27T06:01:54.775Z,23
2018-09-27T06:03:00.287Z,23
2018-09-27T06:04:05.415Z,23
2018-09-27T06:05:10.848Z,23
2018-09-27T06:06:15.442Z,23
2018-09-27T06:07:21.240Z,23
2018-09-27T06:08:26.685Z,23
2018-09-27T06:09:32.308Z,23
2018-09-27T06:10:38.129Z,23
2018-09-27T06:11:43.317Z,23
2018-09-27T06:12:49.421Z,23
2018-09-27T06:13:54.028Z,23
2018-09-27T06:14:59.229Z,23
2018-09-27T06:16:04.912Z,23
2018-09-27T06:17:09.794Z,23
2018-09-27T06:18:15.272Z,23
2018-09-27T06:19:21.081Z,23
2018-09-27T06:20:26.179Z,23
2018-09-27T06:21:32.507Z,23
2018-09-27T06:22:38.358Z,23
2018-09-27T06:23:43.509Z,23
2018-09-27T06:24:49.049Z,23
2018-09-27T06:25:54.535Z,23
2018-09-27T06:26:59.462Z,23
2018-09-27T06:28:05.317Z,23
2018-09-27T06:29:10.195Z,23
2018-09-27T06:30:15.656Z,23
2018-09-27T06:31:21.435Z,23
2018-09-27T06:32:26.590Z,23
2018-09-27T06:33:32.229Z,23
2018-09-27T06:34:37.676Z,23
2018-09-27T06:35:43.105Z,23
2018-09-27T06:36:48.567Z,23
2018-09-27T06:37:53.784Z,23
2018-09-27T06:38:59.213Z,23
2018-09-27T06:40:04.827Z,23
2018-09-27T06:41:10.099Z,22
2018-09-27T06:42:15.566Z,22
2018-09-27T06:43:20.964Z,22
2018-09-27T06:44:26.274Z,23
2018-09-27T06:45:31.853Z,23
2018-09-27T06:46:37.279Z,22
2018-09-27T06:47:42.707Z,23
2018-09-27T06:48:48.423Z,22
2018-09-27T06:49:54.593Z,23
2018-09-27T06:51:00.050Z,23
2018-09-27T06:52:05.479Z,23
2018-09-27T06:53:10.401Z,23
2018-09-27T06:54:15.910Z,23
2018-09-27T06:55:22.049Z,23
2018-09-27T06:56:29.826Z,23
2018-09-27T06:57:36.264Z,23
2018-09-27T06:58:41.694Z,23
2018-09-27T06:59:46.548Z,23
2018-09-27T07:00:52.293Z,23
2018-09-27T07:01:57.558Z,23
2018-09-27T07:03:02.610Z,23
2018-09-27T07:04:08.079Z,23
2018-09-27T07:05:12.723Z,22
2018-09-27T07:06:17.909Z,22
2018-09-27T07:07:23.226Z,22
2018-09-27T07:08:29.104Z,22
2018-09-27T07:09:34.840Z,22
2018-09-27T07:10:39.760Z,22
2018-09-27T07:11:45.242Z,22
2018-09-27T07:12:50.784Z,22
2018-09-27T07:13:57.080Z,22
2018-09-27T07:15:02.613Z,22
2018-09-27T07:16:07.872Z,22
2018-09-27T07:17:13.317Z,22
2018-09-27T07:18:18.489Z,22
2018-09-27T07:19:23.792Z,21
2018-09-27T07:20:28.702Z,20
2018-09-27T07:21:33.911Z,20
2018-09-27T07:22:38.773Z,20
2018-09-27T07:23:44.280Z,21
2018-09-27T07:24:50.108Z,21
2018-09-27T07:25:55.254Z,21
2018-09-27T07:27:00.557Z,21
2018-09-27T07:28:06.163Z,21
2018-09-27T07:29:10.753Z,21
2018-09-27T07:30:15.703Z,21
2018-09-27T07:31:20.596Z,21
2018-09-27T07:32:26.552Z,21
2018-09-27T07:33:32.078Z,21
2018-09-27T07:34:37.121Z,22
2018-09-27T07:35:41.443Z,21
2018-09-27T07:36:46.923Z,21
2018-09-27T07:37:52.349Z,22
2018-09-27T07:38:57.210Z,22
2018-09-27T07:40:03.011Z,22
2018-09-27T07:41:07.950Z,22
2018-09-27T07:42:12.639Z,22
2018-09-27T07:43:18.083Z,22
2018-09-27T07:44:23.793Z,22
2018-09-27T07:45:29.690Z,22
2018-09-27T07:46:34.833Z,22
2018-09-27T07:47:39.455Z,22
2018-09-27T07:48:45.129Z,22
2018-09-27T07:49:50.328Z,22
2018-09-27T07:50:55.776Z,22
2018-09-27T07:52:01.184Z,22
2018-09-27T07:53:05.993Z,22
2018-09-27T07:54:11.196Z,22
2018-09-27T07:55:16.992Z,22
2018-09-27T07:56:22.493Z,22
2018-09-27T07:57:28.140Z,22
2018-09-27T07:58:33.855Z,22
2018-09-27T07:59:39.290Z,22
2018-09-27T08:00:44.358Z,22
2018-09-27T08:01:49.535Z,22
2018-09-27T08:02:55.120Z,22
2018-09-27T08:04:01.240Z,22
2018-09-27T08:05:06.256Z,22
2018-09-27T08:06:11.685Z,22
2018-09-27T08:07:17.222Z,22
2018-09-27T08:08:22.511Z,22
2018-09-27T08:09:28.460Z,22
2018-09-27T08:10:33.512Z,22
2018-09-27T08:11:38.860Z,22
2018-09-27T08:12:44.911Z,22
2018-09-27T08:13:49.777Z,22
2018-09-27T08:14:54.938Z,22
2018-09-27T08:16:00.618Z,22
2018-09-27T08:17:05.895Z,22
2018-09-27T08:18:11.557Z,22
2018-09-27T08:19:16.806Z,22
2018-09-27T08:20:22.411Z,22
2018-09-27T08:21:28.387Z,22
2018-09-27T08:22:33.837Z,22
2018-09-27T08:23:38.701Z,22
2018-09-27T08:24:44.177Z,22
2018-09-27T08:25:49.329Z,22
2018-09-27T08:26:54.776Z,22
2018-09-27T08:28:00.000Z,22
2018-09-27T08:29:04.905Z,22
2018-09-27T08:30:10.523Z,22
2018-09-27T08:31:15.828Z,22
2018-09-27T08:32:21.535Z,22
2018-09-27T08:33:27.391Z,22
2018-09-27T08:34:32.545Z,22
2018-09-27T08:35:37.153Z,22
2018-09-27T08:36:42.570Z,22
2018-09-27T08:37:47.731Z,22
2018-09-27T08:38:53.344Z,22
2018-09-27T08:39:58.806Z,22
2018-09-27T08:41:04.233Z,22
2018-09-27T08:42:09.431Z,22
2018-09-27T08:43:14.434Z,22
2018-09-27T08:44:19.027Z,22
2018-09-27T08:45:25.801Z,22
2018-09-27T08:46:32.572Z,22
2018-09-27T08:47:37.755Z,22
2018-09-27T08:48:43.157Z,22
2018-09-27T08:49:48.719Z,22
2018-09-27T08:50:53.948Z,22
2018-09-27T08:51:59.448Z,22
2018-09-27T08:53:04.948Z,22
2018-09-27T08:54:10.117Z,22
2018-09-27T08:55:15.530Z,22
2018-09-27T08:56:20.926Z,22
2018-09-27T08:57:26.857Z,22
2018-09-27T08:58:32.017Z,23
2018-09-27T08:59:37.173Z,23
2018-09-27T09:00:42.960Z,22
2018-09-27T09:01:48.426Z,22
2018-09-27T09:02:53.626Z,23
2018-09-27T09:03:59.629Z,23
2018-09-27T09:05:05.871Z,23
2018-09-27T09:06:11.116Z,23
2018-09-27T09:07:16.712Z,23
2018-09-27T09:08:22.201Z,22
2018-09-27T09:09:27.945Z,22
2018-09-27T09:10:33.528Z,22
2018-09-27T09:11:38.958Z,22
2018-09-27T09:12:44.689Z,22
2018-09-27T09:13:49.907Z,22
2018-09-27T09:14:55.367Z,22
2018-09-27T09:16:00.760Z,22
2018-09-27T09:17:05.910Z,22
2018-09-27T09:18:11.345Z,22
2018-09-27T09:19:16.203Z,22
2018-09-27T09:20:21.689Z,22
2018-09-27T09:21:27.746Z,22
2018-09-27T09:22:33.059Z,22
2018-09-27T09:23:37.473Z,22
2018-09-27T09:24:42.741Z,22
2018-09-27T09:25:48.624Z,22
2018-09-27T09:26:54.283Z,22
2018-09-27T09:27:59.995Z,22
2018-09-27T09:29:04.882Z,22
2018-09-27T09:30:09.760Z,22
2018-09-27T09:31:15.554Z,22
2018-09-27T09:32:20.707Z,22
2018-09-27T09:33:26.289Z,22
2018-09-27T09:34:31.496Z,22
2018-09-27T09:35:36.436Z,22
2018-09-27T09:36:41.827Z,22
2018-09-27T09:37:47.279Z,22
2018-09-27T09:38:52.065Z,22
2018-09-27T09:39:57.280Z,22
2018-09-27T09:41:02.740Z,22
2018-09-27T09:42:07.899Z,22
2018-09-27T09:43:12.767Z,22
2018-09-27T09:44:18.159Z,22
2018-09-27T09:45:23.335Z,22
2018-09-27T09:46:29.150Z,22
2018-09-27T09:47:34.294Z,23
2018-09-27T09:48:39.286Z,23
2018-09-27T09:49:44.151Z,23
2018-09-27T09:50:49.653Z,22
2018-09-27T09:51:55.000Z,23
2018-09-27T09:53:00.442Z,23
2018-09-27T09:54:05.451Z,23
2018-09-27T09:55:10.981Z,23
2018-09-27T09:56:16.565Z,23
2018-09-27T09:57:22.089Z,23
2018-09-27T09:58:28.035Z,23
2018-09-27T09:59:33.193Z,23
2018-09-27T10:00:38.785Z,23
2018-09-27T10:01:43.683Z,23
2018-09-27T10:02:48.860Z,23
2018-09-27T10:03:54.626Z,23
2018-09-27T10:04:59.824Z,23
2018-09-27T10:06:05.257Z,22
2018-09-27T10:07:10.960Z,23
2018-09-27T10:08:16.107Z,23
2018-09-27T10:09:21.631Z,23
2018-09-27T10:10:27.096Z,22
2018-09-27T10:11:31.949Z,22
2018-09-27T10:12:37.354Z,23
2018-09-27T10:13:42.823Z,23
2018-09-27T10:14:47.968Z,23
2018-09-27T10:15:53.661Z,23
2018-09-27T10:16:58.271Z,23
2018-09-27T10:18:03.127Z,22
2018-09-27T10:19:08.544Z,22
2018-09-27T10:20:13.979Z,22
2018-09-27T10:21:18.953Z,22
2018-09-27T10:22:24.827Z,22
2018-09-27T10:23:30.056Z,22
2018-09-27T10:24:35.735Z,22
2018-09-27T10:25:40.323Z,22
2018-09-27T10:26:45.919Z,22
2018-09-27T10:27:51.316Z,22
2018-09-27T10:28:56.807Z,22
2018-09-27T10:30:02.061Z,22
2018-09-27T10:31:07.270Z,22
2018-09-27T10:32:12.146Z,22
2018-09-27T10:33:17.420Z,22
2018-09-27T10:34:22.867Z,22
2018-09-27T10:35:28.376Z,22
2018-09-27T10:36:33.364Z,22
2018-09-27T10:37:38.523Z,22
2018-09-27T10:38:43.389Z,22
2018-09-27T10:39:48.872Z,22
2018-09-27T10:40:54.027Z,22
2018-09-27T10:41:58.604Z,22
2018-09-27T10:43:04.107Z,22
2018-09-27T10:44:09.064Z,21
2018-09-27T10:45:13.964Z,21
2018-09-27T10:46:19.701Z,21
2018-09-27T10:47:24.880Z,21
2018-09-27T10:48:30.748Z,21
2018-09-27T10:49:36.202Z,21
2018-09-27T10:50:41.411Z,21
2018-09-27T10:51:46.527Z,21
2018-09-27T10:52:51.717Z,21
2018-09-27T10:53:57.138Z,21
2018-09-27T10:55:02.269Z,21
2018-09-27T10:56:06.971Z,20
2018-09-27T10:57:11.637Z,20
2018-09-27T10:58:18.034Z,20
2018-09-27T10:59:22.655Z,20
2018-09-27T11:00:28.661Z,20
2018-09-27T11:01:33.944Z,20
2018-09-27T11:02:39.433Z,20
2018-09-27T11:03:44.304Z,20
2018-09-27T11:04:49.532Z,20
2018-09-27T11:05:54.961Z,20
2018-09-27T11:07:00.899Z,20
2018-09-27T11:08:06.149Z,20
2018-09-27T11:09:11.287Z,20
2018-09-27T11:10:17.024Z,20
2018-09-27T11:11:22.276Z,20
2018-09-27T11:12:28.663Z,20
2018-09-27T11:13:33.888Z,20
2018-09-27T11:14:39.043Z,20
2018-09-27T11:15:44.748Z,20
2018-09-27T11:16:50.179Z,20
2018-09-27T11:17:55.320Z,20
2018-09-27T11:19:00.726Z,20
2018-09-27T11:20:05.899Z,20
2018-09-27T11:21:10.916Z,20
2018-09-27T11:22:16.098Z,20
2018-09-27T11:23:21.560Z,20
2018-09-27T11:24:27.442Z,20
2018-09-27T11:25:32.891Z,20
2018-09-27T11:26:38.327Z,20
2018-09-27T11:27:44.504Z,20
2018-09-27T11:28:50.224Z,20
2018-09-27T11:29:55.483Z,20
2018-09-27T11:31:00.882Z,19
2018-09-27T11:32:05.767Z,20
2018-09-27T11:33:11.195Z,20
2018-09-27T11:34:17.090Z,19
2018-09-27T11:35:21.950Z,19
2018-09-27T11:36:27.868Z,19
2018-09-27T11:37:33.934Z,19
2018-09-27T11:38:39.516Z,20
2018-09-27T11:39:45.848Z,20
2018-09-27T11:40:50.721Z,20
2018-09-27T11:41:56.275Z,20
2018-09-27T11:43:01.696Z,19
2018-09-27T11:44:06.953Z,19
2018-09-27T11:45:13.031Z,19
2018-09-27T11:46:18.171Z,19
2018-09-27T11:47:23.393Z,19
2018-09-27T11:48:28.892Z,19
2018-09-27T11:49:34.540Z,19
2018-09-27T11:50:40.020Z,19
2018-09-27T11:51:45.759Z,19
2018-09-27T11:52:51.012Z,19
2018-09-27T11:53:55.924Z,19
2018-09-27T11:55:01.730Z,19
2018-09-27T11:56:06.243Z,19
2018-09-27T11:57:11.733Z,19
2018-09-27T11:58:17.424Z,19
2018-09-27T11:59:22.857Z,19
2018-09-27T12:00:28.321Z,19
2018-09-27T12:01:33.722Z,19
2018-09-27T12:02:39.576Z,19
2018-09-27T12:03:45.091Z,19
2018-09-27T12:04:49.343Z,19
2018-09-27T12:05:54.499Z,19
2018-09-27T12:07:00.543Z,19
2018-09-27T12:08:05.462Z,19
2018-09-27T12:09:11.004Z,19
2018-09-27T12:10:16.914Z,19
2018-09-27T12:11:22.409Z,19
2018-09-27T12:12:27.916Z,19
2018-09-27T12:13:33.433Z,19
2018-09-27T12:14:39.230Z,19
2018-09-27T12:15:45.312Z,19
2018-09-27T12:16:50.894Z,19
2018-09-27T12:17:56.508Z,19
2018-09-27T12:19:01.939Z,19
2018-09-27T12:20:07.445Z,19
2018-09-27T12:21:13.112Z,19
2018-09-27T12:22:18.640Z,19
2018-09-27T12:23:23.981Z,19
2018-09-27T12:24:29.089Z,19
2018-09-27T12:25:34.439Z,19
2018-09-27T12:26:39.203Z,18
2018-09-27T12:27:44.894Z,18
2018-09-27T12:28:50.400Z,18
2018-09-27T12:29:55.734Z,18
2018-09-27T12:31:01.256Z,19
2018-09-27T12:32:06.161Z,19
2018-09-27T12:33:11.391Z,19
2018-09-27T12:34:16.565Z,19
2018-09-27T12:35:22.026Z,19
2018-09-27T12:36:27.339Z,19
2018-09-27T12:37:32.928Z,18
2018-09-27T12:38:38.219Z,19
2018-09-27T12:39:44.205Z,19
2018-09-27T12:40:49.859Z,19
2018-09-27T12:41:55.082Z,19
2018-09-27T12:43:02.497Z,18
2018-09-27T12:44:07.514Z,19
2018-09-27T12:45:13.487Z,19
2018-09-27T12:46:19.385Z,19
2018-09-27T12:47:24.431Z,19
2018-09-27T12:48:30.165Z,19
2018-09-27T12:49:35.955Z,19
2018-09-27T12:50:41.697Z,18
2018-09-27T12:51:48.429Z,19
2018-09-27T12:52:54.688Z,19
2018-09-27T12:54:00.009Z,19
2018-09-27T12:55:04.934Z,19
2018-09-27T12:56:09.738Z,19
2018-09-27T12:57:15.293Z,18
2018-09-27T12:58:21.408Z,18
2018-09-27T12:59:27.025Z,18
2018-09-27T13:00:32.345Z,18
2018-09-27T13:01:37.489Z,19
2018-09-27T13:02:43.427Z,19
2018-09-27T13:03:50.580Z,19
2018-09-27T13:04:56.014Z,19
2018-09-27T13:06:01.249Z,18
2018-09-27T13:07:07.006Z,18
2018-09-27T13:08:12.776Z,18
2018-09-27T13:09:18.760Z,18
2018-09-27T13:10:25.875Z,18
2018-09-27T13:11:31.091Z,18
2018-09-27T13:12:42.075Z,18
2018-09-27T13:13:47.782Z,18
2018-09-27T13:14:53.012Z,18
2018-09-27T13:15:59.095Z,18
2018-09-27T13:17:04.223Z,18
2018-09-27T13:18:09.303Z,18
2018-09-27T13:19:14.721Z,18
2018-09-27T13:20:20.107Z,18
2018-09-27T13:21:25.062Z,18
2018-09-27T13:22:44.907Z,19
2018-09-27T13:23:50.544Z,19
2018-09-27T13:24:56.426Z,19
2018-09-27T13:26:01.888Z,19
2018-09-27T13:27:06.099Z,19
2018-09-27T13:28:12.202Z,19
2018-09-27T13:29:17.823Z,19
2018-09-27T13:30:23.319Z,19
2018-09-27T13:31:29.224Z,19
2018-09-27T13:32:34.657Z,19
2018-09-27T13:33:39.784Z,19
2018-09-27T13:34:44.662Z,18
2018-09-27T13:35:50.019Z,18
2018-09-27T13:36:54.953Z,18
2018-09-27T13:38:00.339Z,19
2018-09-27T13:39:05.160Z,18
2018-09-27T13:40:11.399Z,18
2018-09-27T13:41:16.838Z,19
2018-09-27T13:42:22.319Z,19
2018-09-27T13:43:28.364Z,19
2018-09-27T13:44:33.249Z,19
2018-09-27T13:45:39.281Z,18
2018-09-27T13:46:44.427Z,19
2018-09-27T13:47:50.128Z,18
2018-09-27T13:48:55.592Z,18
2018-09-27T13:50:00.569Z,19
2018-09-27T13:51:05.218Z,19
2018-09-27T13:52:10.761Z,19
2018-09-27T13:53:16.033Z,19
2018-09-27T13:54:21.530Z,19
2018-09-27T13:55:41.380Z,19
2018-09-27T13:56:46.579Z,19
2018-09-27T13:57:51.830Z,18
2018-09-27T13:58:57.011Z,19
2018-09-27T14:00:02.231Z,18
2018-09-27T14:01:07.233Z,18
2018-09-27T14:02:12.924Z,18
2018-09-27T14:03:17.856Z,18
2018-09-27T14:04:23.586Z,18
2018-09-27T14:05:28.869Z,18
2018-09-27T14:06:35.176Z,18
2018-09-27T14:07:40.318Z,18
2018-09-27T14:08:45.511Z,18
2018-09-27T14:09:50.935Z,18
2018-09-27T14:10:56.292Z,18
2018-09-27T14:12:01.227Z,18
2018-09-27T14:13:06.400Z,18
2018-09-27T14:14:11.277Z,18
2018-09-27T14:15:16.710Z,18
2018-09-27T14:16:22.262Z,18
2018-09-27T14:17:27.402Z,18
2018-09-27T14:18:32.888Z,18
2018-09-27T14:19:38.039Z,18
2018-09-27T14:20:42.626Z,18
2018-09-27T14:21:47.873Z,18
2018-09-27T14:22:53.080Z,18
2018-09-27T14:23:58.261Z,18
2018-09-27T14:25:03.666Z,19
2018-09-27T14:26:08.250Z,19
2018-09-27T14:27:13.481Z,18
2018-09-27T14:28:18.880Z,19
2018-09-27T14:29:24.313Z,19
2018-09-27T14:30:29.446Z,19
2018-09-27T14:31:34.895Z,19
2018-09-27T14:32:40.045Z,19
2018-09-27T14:33:46.259Z,19
2018-09-27T14:34:50.607Z,19
2018-09-27T14:35:55.813Z,19
2018-09-27T14:37:01.234Z,19
2018-09-27T14:38:06.097Z,19
2018-09-27T14:39:11.301Z,19
2018-09-27T14:40:16.703Z,19
2018-09-27T14:41:21.931Z,19
2018-09-27T14:42:27.453Z,19
2018-09-27T14:43:32.931Z,19
2018-09-27T14:44:38.084Z,19
2018-09-27T14:45:43.922Z,19
2018-09-27T14:46:48.796Z,19
2018-09-27T14:47:54.325Z,19
2018-09-27T14:49:01.253Z,19
2018-09-27T14:50:05.968Z,19
2018-09-27T14:51:11.016Z,19
2018-09-27T14:52:16.876Z,19
2018-09-27T14:53:22.311Z,19
2018-09-27T14:54:28.341Z,19
2018-09-27T14:55:33.491Z,19
2018-09-27T14:56:38.692Z,19
2018-09-27T14:57:44.520Z,19
2018-09-27T14:58:49.769Z,19
2018-09-27T14:59:55.207Z,19
2018-09-27T15:01:00.756Z,19
2018-09-27T15:02:05.774Z,19
2018-09-27T15:03:11.217Z,19
2018-09-27T15:04:16.644Z,19
2018-09-27T15:05:21.497Z,19
2018-09-27T15:06:26.736Z,19
2018-09-27T15:07:31.920Z,19
2018-09-27T15:08:37.133Z,19
2018-09-27T15:09:42.783Z,19
2018-09-27T15:10:49.383Z,19
2018-09-27T15:11:54.648Z,19
2018-09-27T15:13:00.142Z,19
2018-09-27T15:14:04.440Z,19
2018-09-27T15:15:09.309Z,19
2018-09-27T15:16:14.561Z,19
2018-09-27T15:17:19.557Z,19
2018-09-27T15:18:24.709Z,19
2018-09-27T15:19:44.760Z,19
2018-09-27T15:20:50.204Z,19
2018-09-27T15:21:55.938Z,19
2018-09-27T15:23:00.825Z,19
2018-09-27T15:24:05.725Z,19
2018-09-27T15:25:11.084Z,19
2018-09-27T15:26:16.229Z,18
2018-09-27T15:27:21.422Z,18
2018-09-27T15:28:27.279Z,18
2018-09-27T15:29:33.027Z,18
2018-09-27T15:30:38.440Z,18
2018-09-27T15:31:44.422Z,18
2018-09-27T15:32:49.351Z,18
2018-09-27T15:33:54.694Z,18
2018-09-27T15:35:00.124Z,18